Terminal Aerodrome Forecast
Issued by NWS

Home | Current Version | Previous Version | Text Only | Print | Product List | Glossary On
Versions: 1 2 3 4 5 6 7 8 9 10 11 12 13 14 15 16 17 18 19
000
FTUS44 KTSA 030400 AAB
TAFBVO
TAF AMD
KBVO 030402Z 0304/0324 17007KT 3SM BR OVC005
     FM031200 19013KT 3SM BR OVC006
     FM031800 21013KT 4SM BR OVC015 PROB30 0318/0324 4SM -RA BR
      OVC007=

USA.gov is the U.S. government's official web portal to all federal, state and local government web resources and services.